createdAt,value
2022-12-25T00:01:25.182Z,9.33
2022-12-25T00:03:53.004Z,9.32
2022-12-25T00:06:20.444Z,9.28
2022-12-25T00:08:47.614Z,9.25
2022-12-25T00:11:19.584Z,9.24
2022-12-25T00:13:48.089Z,9.24
2022-12-25T00:16:20.073Z,9.23
2022-12-25T00:18:48.404Z,9.20
2022-12-25T00:21:16.001Z,9.19
2022-12-25T00:23:44.109Z,9.17
2022-12-25T00:26:17.483Z,9.14
2022-12-25T00:28:45.070Z,9.13
2022-12-25T00:31:17.959Z,9.12
2022-12-25T00:33:48.009Z,9.10
2022-12-25T00:36:19.243Z,9.09
2022-12-25T00:38:47.215Z,9.09
2022-12-25T00:41:42.674Z,9.08
2022-12-25T00:44:13.700Z,9.08
2022-12-25T00:46:42.525Z,9.07
2022-12-25T00:49:11.020Z,9.06
2022-12-25T00:51:38.282Z,9.06
2022-12-25T00:54:05.345Z,9.04
2022-12-25T00:56:32.586Z,9.03
2022-12-25T00:58:59.589Z,9.03
2022-12-25T01:01:26.932Z,9.01
2022-12-25T01:03:53.861Z,9.01
2022-12-25T01:06:21.013Z,9.03
2022-12-25T01:09:06.412Z,9.04
2022-12-25T01:11:33.614Z,9.01
2022-12-25T01:14:00.867Z,9.02
2022-12-25T01:16:28.727Z,9.01
2022-12-25T01:18:56.337Z,9.00
2022-12-25T01:21:24.123Z,9.01
2022-12-25T01:23:53.615Z,9.03
2022-12-25T01:26:25.236Z,9.00
2022-12-25T01:28:53.061Z,8.99
2022-12-25T01:31:24.090Z,8.99
2022-12-25T01:33:52.077Z,8.97
2022-12-25T01:36:26.662Z,8.98
2022-12-25T01:38:54.927Z,9.00
2022-12-25T01:41:25.237Z,8.99
2022-12-25T01:44:18.063Z,8.98
2022-12-25T01:46:45.372Z,9.00
2022-12-25T01:49:23.636Z,8.96
2022-12-25T01:52:21.670Z,8.99
2022-12-25T01:54:58.138Z,8.97
2022-12-25T01:57:34.570Z,8.97
2022-12-25T02:00:05.095Z,8.96
2022-12-25T02:02:32.697Z,8.96
2022-12-25T02:05:38.781Z,8.95
2022-12-25T02:08:12.740Z,8.95
2022-12-25T02:10:40.089Z,8.97
2022-12-25T02:13:08.431Z,8.95
2022-12-25T02:16:13.416Z,8.93
2022-12-25T02:18:51.862Z,8.95
2022-12-25T02:22:10.297Z,8.95
2022-12-25T02:25:01.641Z,8.97
2022-12-25T02:28:13.167Z,8.95
2022-12-25T02:30:53.747Z,8.98
2022-12-25T02:33:54.902Z,8.93
2022-12-25T02:36:32.761Z,8.93
2022-12-25T02:39:23.628Z,8.92
2022-12-25T02:41:58.200Z,8.97
2022-12-25T02:44:44.515Z,9.00
2022-12-25T02:47:30.280Z,9.01
2022-12-25T02:50:17.657Z,9.03
2022-12-25T02:53:06.350Z,9.03
2022-12-25T02:55:59.110Z,9.06
2022-12-25T02:58:46.777Z,9.07
2022-12-25T03:01:39.582Z,9.06
2022-12-25T03:04:34.750Z,9.07
2022-12-25T03:07:11.964Z,9.06
2022-12-25T03:10:05.734Z,9.09
2022-12-25T03:12:49.323Z,9.08
2022-12-25T03:15:39.058Z,9.07
2022-12-25T03:18:13.849Z,9.08
2022-12-25T03:21:00.156Z,9.09
2022-12-25T03:23:53.253Z,9.11
2022-12-25T03:26:39.242Z,9.12
2022-12-25T03:29:06.240Z,9.17
2022-12-25T03:32:03.175Z,9.16
2022-12-25T03:35:16.922Z,9.14
2022-12-25T03:38:41.993Z,9.12
2022-12-25T03:41:57.014Z,9.11
2022-12-25T03:45:08.691Z,9.11
2022-12-25T03:48:03.189Z,9.11
2022-12-25T03:51:15.854Z,9.11
2022-12-25T03:54:09.247Z,9.09
2022-12-25T03:56:57.216Z,9.03
2022-12-25T03:59:43.708Z,8.97
2022-12-25T04:02:29.602Z,8.92
2022-12-25T04:05:15.623Z,8.92
2022-12-25T04:08:01.466Z,8.89
2022-12-25T04:10:47.029Z,8.82
2022-12-25T04:13:34.660Z,8.81
2022-12-25T04:16:20.489Z,8.75
2022-12-25T04:19:06.184Z,8.72
2022-12-25T04:21:51.617Z,8.67
2022-12-25T04:24:37.113Z,8.62
2022-12-25T04:27:23.080Z,8.63
2022-12-25T04:30:08.993Z,8.63
2022-12-25T04:32:54.579Z,8.67
2022-12-25T04:35:40.453Z,8.66
2022-12-25T04:38:07.423Z,8.66
2022-12-25T04:40:35.532Z,8.64
2022-12-25T04:43:02.566Z,8.65
2022-12-25T04:45:29.822Z,8.66
2022-12-25T04:48:00.638Z,8.66
2022-12-25T04:50:28.164Z,8.69
2022-12-25T04:52:55.070Z,8.70
2022-12-25T04:55:22.419Z,8.75
2022-12-25T04:57:49.429Z,8.76
2022-12-25T05:00:17.259Z,8.77
2022-12-25T05:02:44.344Z,8.80
2022-12-25T05:05:11.964Z,8.77
2022-12-25T05:07:38.906Z,8.79
2022-12-25T05:10:07.113Z,8.77
2022-12-25T05:12:33.994Z,8.72
2022-12-25T05:15:01.254Z,8.70
2022-12-25T05:17:28.188Z,8.68
2022-12-25T05:19:55.456Z,8.67
2022-12-25T05:22:22.299Z,8.64
2022-12-25T05:24:49.595Z,8.62
2022-12-25T05:27:17.000Z,8.57
2022-12-25T05:29:44.234Z,8.56
2022-12-25T05:32:11.526Z,8.56
2022-12-25T05:34:38.925Z,8.55
2022-12-25T05:37:06.579Z,8.56
2022-12-25T05:39:33.988Z,8.59
2022-12-25T05:42:01.164Z,8.60
2022-12-25T05:44:28.336Z,8.63
2022-12-25T05:46:55.337Z,8.65
2022-12-25T05:49:22.786Z,8.66
2022-12-25T05:51:49.770Z,8.69
2022-12-25T05:54:17.125Z,8.70
2022-12-25T05:56:44.095Z,8.71
2022-12-25T05:59:11.268Z,8.72
2022-12-25T06:01:38.303Z,8.71
2022-12-25T06:04:11.969Z,8.76
2022-12-25T06:06:39.551Z,8.78
2022-12-25T06:09:06.788Z,8.77
2022-12-25T06:11:33.709Z,8.78
2022-12-25T06:14:01.205Z,8.80
2022-12-25T06:16:30.550Z,8.79
2022-12-25T06:19:03.097Z,8.78
2022-12-25T06:21:30.248Z,8.79
2022-12-25T06:23:57.488Z,8.78
2022-12-25T06:26:24.528Z,8.79
2022-12-25T06:28:52.428Z,8.72
2022-12-25T06:31:23.188Z,8.70
2022-12-25T06:33:50.999Z,8.74
2022-12-25T06:36:25.221Z,8.74
2022-12-25T06:38:53.617Z,8.72
2022-12-25T06:41:26.491Z,8.74
2022-12-25T06:43:57.568Z,8.72
2022-12-25T06:46:28.945Z,8.73
2022-12-25T06:48:58.816Z,8.70
2022-12-25T06:51:29.498Z,8.65
2022-12-25T06:53:58.139Z,8.69
2022-12-25T06:56:28.639Z,8.72
2022-12-25T06:59:09.571Z,8.73
2022-12-25T07:01:44.497Z,8.74
2022-12-25T07:04:25.449Z,8.73
2022-12-25T07:06:53.175Z,8.75
2022-12-25T07:09:20.390Z,8.79
2022-12-25T07:11:47.278Z,8.78
2022-12-25T07:14:24.520Z,8.81
2022-12-25T07:16:52.256Z,8.85
2022-12-25T07:19:19.635Z,8.88
2022-12-25T07:21:47.306Z,8.89
2022-12-25T07:24:24.773Z,8.89
2022-12-25T07:26:52.521Z,8.88
2022-12-25T07:29:19.999Z,8.85
2022-12-25T07:31:47.961Z,8.84
2022-12-25T07:34:18.026Z,8.82
2022-12-25T07:36:45.363Z,8.83
2022-12-25T07:39:13.044Z,8.85
2022-12-25T07:41:40.407Z,8.89
2022-12-25T07:44:07.595Z,8.90
2022-12-25T07:46:34.795Z,8.92
2022-12-25T07:49:02.059Z,8.95
2022-12-25T07:51:30.330Z,8.96
2022-12-25T07:53:57.573Z,8.99
2022-12-25T07:56:24.505Z,9.03
2022-12-25T07:58:51.804Z,9.09
2022-12-25T08:01:23.473Z,9.06
2022-12-25T08:04:02.935Z,9.05
2022-12-25T08:06:34.357Z,9.04
2022-12-25T08:09:11.533Z,9.06
2022-12-25T08:11:39.987Z,9.09
2022-12-25T08:14:09.185Z,9.06
2022-12-25T08:16:39.793Z,9.10
2022-12-25T08:19:11.403Z,9.16
2022-12-25T08:21:39.023Z,9.19
2022-12-25T08:24:06.868Z,9.23
2022-12-25T08:26:33.782Z,9.25
2022-12-25T08:29:01.140Z,9.26
2022-12-25T08:31:30.343Z,9.24
2022-12-25T08:33:59.685Z,9.23
2022-12-25T08:36:27.338Z,9.23
2022-12-25T08:39:02.189Z,9.22
2022-12-25T08:41:30.682Z,9.24
2022-12-25T08:43:58.306Z,9.22
2022-12-25T08:46:25.277Z,9.26
2022-12-25T08:48:52.637Z,9.27
2022-12-25T08:51:23.548Z,9.31
2022-12-25T08:53:53.561Z,9.32
2022-12-25T08:56:20.922Z,9.39
2022-12-25T08:58:48.221Z,9.42
2022-12-25T09:01:15.329Z,9.46
2022-12-25T09:03:43.533Z,9.49
2022-12-25T09:06:14.482Z,9.56
2022-12-25T09:08:48.603Z,9.57
2022-12-25T09:11:17.837Z,9.58
2022-12-25T09:13:45.065Z,9.62
2022-12-25T09:16:18.886Z,9.61
2022-12-25T09:18:46.869Z,9.63
2022-12-25T09:21:16.879Z,9.58
2022-12-25T09:23:44.473Z,9.63
2022-12-25T09:26:15.479Z,9.67
2022-12-25T09:28:50.245Z,9.68
2022-12-25T09:31:18.747Z,9.69
2022-12-25T09:33:46.088Z,9.68
2022-12-25T09:36:13.117Z,9.73
2022-12-25T09:38:40.476Z,9.75
2022-12-25T09:41:31.694Z,9.76
2022-12-25T09:44:21.048Z,9.75
2022-12-25T09:46:55.947Z,9.75
2022-12-25T09:50:16.231Z,9.78
2022-12-25T09:52:55.087Z,9.89
2022-12-25T09:55:27.140Z,9.99
2022-12-25T09:57:58.067Z,10.07
2022-12-25T10:00:36.539Z,10.12
2022-12-25T10:03:32.961Z,10.14
2022-12-25T10:07:04.918Z,10.17
2022-12-25T10:09:55.545Z,10.20
2022-12-25T10:13:01.147Z,10.21
2022-12-25T10:15:45.819Z,10.21
2022-12-25T10:18:41.921Z,10.23
2022-12-25T10:21:14.430Z,10.24
2022-12-25T10:23:48.482Z,10.25
2022-12-25T10:26:22.362Z,10.25
2022-12-25T10:29:02.511Z,10.25
2022-12-25T10:31:36.107Z,10.28
2022-12-25T10:34:05.500Z,10.24
2022-12-25T10:36:33.587Z,10.24
2022-12-25T10:39:00.764Z,10.25
2022-12-25T10:41:31.637Z,10.26
2022-12-25T10:43:58.915Z,10.25
2022-12-25T10:46:29.210Z,10.26
2022-12-25T10:49:00.756Z,10.29
2022-12-25T10:51:34.911Z,10.31
2022-12-25T10:54:17.310Z,10.32
2022-12-25T10:56:58.307Z,10.33
2022-12-25T10:59:28.115Z,10.35
2022-12-25T11:02:24.790Z,10.35
2022-12-25T11:05:02.800Z,10.40
2022-12-25T11:07:31.116Z,10.44
2022-12-25T11:10:22.902Z,10.46
2022-12-25T11:12:50.078Z,10.50
2022-12-25T11:15:39.794Z,10.49
2022-12-25T11:18:29.478Z,10.48
2022-12-25T11:21:19.354Z,10.49
2022-12-25T11:23:51.200Z,10.48
2022-12-25T11:26:18.936Z,10.48
2022-12-25T11:28:48.999Z,10.47
2022-12-25T11:31:19.881Z,10.47
2022-12-25T11:34:14.371Z,10.48
2022-12-25T11:36:47.563Z,10.50
2022-12-25T11:39:34.014Z,10.50
2022-12-25T11:42:35.998Z,10.48
2022-12-25T11:45:16.262Z,10.52
2022-12-25T11:48:00.569Z,10.50
2022-12-25T11:50:43.859Z,10.52
2022-12-25T11:53:46.066Z,10.53
2022-12-25T11:56:26.752Z,10.53
2022-12-25T11:59:24.216Z,10.54
2022-12-25T12:02:12.384Z,10.55
2022-12-25T12:04:48.099Z,10.59
2022-12-25T12:07:20.985Z,10.61
2022-12-25T12:10:09.714Z,10.60
2022-12-25T12:13:32.212Z,10.70
2022-12-25T12:15:59.806Z,10.69
2022-12-25T12:18:26.769Z,10.70
2022-12-25T12:21:11.455Z,10.70
2022-12-25T12:24:19.136Z,10.71
2022-12-25T12:27:01.138Z,10.72
2022-12-25T12:29:55.688Z,10.73
2022-12-25T12:32:47.734Z,10.72
2022-12-25T12:35:30.576Z,10.70
2022-12-25T12:38:04.578Z,10.67
2022-12-25T12:40:39.306Z,10.68
2022-12-25T12:43:23.815Z,10.67
2022-12-25T12:45:58.988Z,10.65
2022-12-25T12:48:30.092Z,10.65
2022-12-25T12:51:07.006Z,10.62
2022-12-25T12:53:35.352Z,10.63
2022-12-25T12:56:20.576Z,10.66
2022-12-25T12:58:50.976Z,10.66
2022-12-25T13:01:27.308Z,10.69
2022-12-25T13:04:37.719Z,10.70
2022-12-25T13:07:32.324Z,10.72
2022-12-25T13:10:13.123Z,10.75
2022-12-25T13:12:40.252Z,10.75
2022-12-25T13:15:15.225Z,10.76
2022-12-25T13:17:45.315Z,10.75
2022-12-25T13:20:35.412Z,10.75
2022-12-25T13:23:30.703Z,10.72
2022-12-25T13:26:05.093Z,10.70
2022-12-25T13:28:36.210Z,10.70
2022-12-25T13:31:03.379Z,10.67
2022-12-25T13:33:30.486Z,10.67
2022-12-25T13:35:57.985Z,10.66
2022-12-25T13:38:29.033Z,10.65
2022-12-25T13:41:17.587Z,10.62
2022-12-25T13:43:46.036Z,10.60
2022-12-25T13:46:15.804Z,10.58
2022-12-25T13:48:43.116Z,10.57
2022-12-25T13:51:16.839Z,10.55
2022-12-25T13:53:44.785Z,10.55
2022-12-25T13:56:16.855Z,10.58
2022-12-25T13:58:48.558Z,10.59
2022-12-25T14:01:16.850Z,10.61
2022-12-25T14:03:47.162Z,10.63
2022-12-25T14:06:30.288Z,10.63
2022-12-25T14:08:59.573Z,10.66
2022-12-25T14:11:30.985Z,10.65
2022-12-25T14:14:14.641Z,10.66
2022-12-25T14:16:44.757Z,10.66
2022-12-25T14:19:33.701Z,10.65
2022-12-25T14:22:19.705Z,10.65
2022-12-25T14:24:47.822Z,10.65
2022-12-25T14:27:21.994Z,10.62
2022-12-25T14:29:53.033Z,10.60
2022-12-25T14:32:25.328Z,10.59
2022-12-25T14:35:03.425Z,10.58
2022-12-25T14:37:34.124Z,10.59
2022-12-25T14:40:07.367Z,10.57
2022-12-25T14:42:38.111Z,10.57
2022-12-25T14:45:33.222Z,10.54
2022-12-25T14:48:25.293Z,10.52
2022-12-25T14:51:17.883Z,10.50
2022-12-25T14:53:54.881Z,10.48
2022-12-25T14:56:25.949Z,10.45
2022-12-25T14:58:57.332Z,10.44
2022-12-25T15:01:34.641Z,10.46
2022-12-25T15:04:17.640Z,10.46
2022-12-25T15:07:00.501Z,10.44
2022-12-25T15:09:30.145Z,10.44
2022-12-25T15:11:57.324Z,10.43
2022-12-25T15:14:26.284Z,10.42
2022-12-25T15:17:00.810Z,10.42
2022-12-25T15:19:38.709Z,10.43
2022-12-25T15:22:06.720Z,10.42
2022-12-25T15:24:34.024Z,10.37
2022-12-25T15:27:01.684Z,10.36
2022-12-25T15:32:23.552Z,10.34
2022-12-25T15:34:51.430Z,10.33
2022-12-25T15:37:19.268Z,10.31
2022-12-25T15:39:47.083Z,10.31
2022-12-25T15:42:17.740Z,10.30
2022-12-25T15:44:45.843Z,10.31
2022-12-25T15:47:16.206Z,10.30
2022-12-25T15:49:43.827Z,10.28
2022-12-25T15:52:15.847Z,10.29
2022-12-25T15:54:43.773Z,10.29
2022-12-25T15:57:22.249Z,10.29
2022-12-25T15:59:49.596Z,10.27
2022-12-25T16:02:20.514Z,10.28
2022-12-25T16:04:48.911Z,10.28
2022-12-25T16:07:20.657Z,10.28
2022-12-25T16:09:47.916Z,10.29
2022-12-25T16:12:15.073Z,10.29
2022-12-25T16:14:42.847Z,10.30
2022-12-25T16:17:15.596Z,10.30
2022-12-25T16:19:44.728Z,10.30
2022-12-25T16:22:23.787Z,10.31
2022-12-25T16:24:51.945Z,10.33
2022-12-25T16:27:18.895Z,10.33
2022-12-25T16:29:46.207Z,10.32
2022-12-25T16:32:15.441Z,10.28
2022-12-25T16:34:43.121Z,10.31
2022-12-25T16:37:10.090Z,10.29
2022-12-25T16:39:37.926Z,10.28
2022-12-25T16:42:04.912Z,10.29
2022-12-25T16:44:35.737Z,10.27
2022-12-25T16:47:02.725Z,10.27
2022-12-25T16:49:29.930Z,10.24
2022-12-25T16:51:56.899Z,10.20
2022-12-25T16:54:24.050Z,10.19
2022-12-25T16:56:51.857Z,10.19
2022-12-25T16:59:19.167Z,10.19
2022-12-25T17:01:46.233Z,10.18
2022-12-25T17:04:14.204Z,10.18
2022-12-25T17:06:41.210Z,10.18
2022-12-25T17:09:08.410Z,10.17
2022-12-25T17:11:35.348Z,10.17
2022-12-25T17:14:05.038Z,10.19
2022-12-25T17:16:36.341Z,10.20
2022-12-25T17:19:17.602Z,10.21
2022-12-25T17:21:44.585Z,10.22
2022-12-25T17:24:12.011Z,10.23
2022-12-25T17:26:41.489Z,10.25
2022-12-25T17:29:08.975Z,10.21
2022-12-25T17:31:38.074Z,10.19
2022-12-25T17:34:08.210Z,10.15
2022-12-25T17:36:36.080Z,10.06
2022-12-25T17:39:06.170Z,10.11
2022-12-25T17:41:33.594Z,10.16
2022-12-25T17:44:00.876Z,10.17
2022-12-25T17:46:30.815Z,10.11
2022-12-25T17:49:00.416Z,10.10
2022-12-25T17:51:30.290Z,10.11
2022-12-25T17:54:03.274Z,10.14
2022-12-25T17:56:31.883Z,10.14
2022-12-25T17:59:06.600Z,10.14
2022-12-25T18:01:37.656Z,10.13
2022-12-25T18:04:06.743Z,10.12
2022-12-25T18:06:36.494Z,10.11
2022-12-25T18:09:06.278Z,10.09
2022-12-25T18:11:36.733Z,10.06
2022-12-25T18:14:06.916Z,10.05
2022-12-25T18:16:37.913Z,10.04
2022-12-25T18:19:06.181Z,10.03
2022-12-25T18:21:33.256Z,10.01
2022-12-25T18:24:03.173Z,10.02
2022-12-25T18:26:30.205Z,10.01
2022-12-25T18:28:58.561Z,9.99
2022-12-25T18:31:30.246Z,9.98
2022-12-25T18:33:59.853Z,9.96
2022-12-25T18:36:28.978Z,9.96
2022-12-25T18:38:57.252Z,9.95
2022-12-25T18:41:25.066Z,9.94
2022-12-25T18:43:55.699Z,9.92
2022-12-25T18:46:26.072Z,9.91
2022-12-25T18:48:56.325Z,9.91
2022-12-25T18:51:23.625Z,9.89
2022-12-25T18:53:52.099Z,9.87
2022-12-25T18:56:18.996Z,9.86
2022-12-25T18:58:47.666Z,9.85
2022-12-25T19:01:18.794Z,9.84
2022-12-25T19:03:48.869Z,9.83
2022-12-25T19:06:26.172Z,9.83
2022-12-25T19:08:54.742Z,9.84
2022-12-25T19:11:23.429Z,9.83
2022-12-25T19:13:50.794Z,9.83
2022-12-25T19:16:17.830Z,9.82
2022-12-25T19:18:45.103Z,9.83
2022-12-25T19:21:12.345Z,9.83
2022-12-25T19:23:40.513Z,9.83
2022-12-25T19:26:10.164Z,9.84
2022-12-25T19:28:39.018Z,9.87
2022-12-25T19:31:08.273Z,9.85
2022-12-25T19:33:39.576Z,9.79
2022-12-25T19:36:11.507Z,9.78
2022-12-25T19:38:38.824Z,9.80
2022-12-25T19:41:16.599Z,9.82
2022-12-25T19:43:49.688Z,9.81
2022-12-25T19:46:26.735Z,9.76
2022-12-25T19:48:56.105Z,9.79
2022-12-25T19:51:33.205Z,9.82
2022-12-25T19:54:00.622Z,9.85
2022-12-25T19:56:29.074Z,9.87
2022-12-25T19:58:57.476Z,9.87
2022-12-25T20:01:27.417Z,9.88
2022-12-25T20:03:54.968Z,9.88
2022-12-25T20:06:26.908Z,9.89
2022-12-25T20:09:02.089Z,9.91
2022-12-25T20:11:31.128Z,9.89
2022-12-25T20:13:59.205Z,9.92
2022-12-25T20:16:26.828Z,9.89
2022-12-25T20:18:54.436Z,9.90
2022-12-25T20:21:23.515Z,9.91
2022-12-25T20:23:53.030Z,9.89
2022-12-25T20:26:23.710Z,9.90
2022-12-25T20:28:52.027Z,9.83
2022-12-25T20:31:27.505Z,9.81
2022-12-25T20:33:56.596Z,9.78
2022-12-25T20:36:24.278Z,9.79
2022-12-25T20:38:52.047Z,9.84
2022-12-25T20:41:27.392Z,9.86
2022-12-25T20:43:55.818Z,9.87
2022-12-25T20:46:23.299Z,9.86
2022-12-25T20:48:51.952Z,9.88
2022-12-25T20:51:23.007Z,9.90
2022-12-25T20:53:50.536Z,9.90
2022-12-25T20:56:20.958Z,9.82
2022-12-25T20:58:48.139Z,9.81
2022-12-25T21:01:17.722Z,9.80
2022-12-25T21:03:45.596Z,9.79
2022-12-25T21:06:13.391Z,9.82
2022-12-25T21:08:41.165Z,9.81
2022-12-25T21:11:09.974Z,9.81
2022-12-25T21:13:40.945Z,9.84
2022-12-25T21:16:15.827Z,9.79
2022-12-25T21:18:43.188Z,9.83
2022-12-25T21:21:11.001Z,9.86
2022-12-25T21:23:40.230Z,9.86
2022-12-25T21:26:16.802Z,9.86
2022-12-25T21:28:44.049Z,9.84
2022-12-25T21:31:11.380Z,9.82
2022-12-25T21:33:54.890Z,9.77
2022-12-25T21:36:30.608Z,9.73
2022-12-25T21:39:05.390Z,9.67
2022-12-25T21:41:35.242Z,9.76
2022-12-25T21:44:02.826Z,9.76
2022-12-25T21:46:30.330Z,9.80
2022-12-25T21:48:59.195Z,9.79
2022-12-25T21:51:49.629Z,9.80
2022-12-25T21:54:20.615Z,9.81
2022-12-25T21:56:49.577Z,9.82
2022-12-25T21:59:21.715Z,9.83
2022-12-25T22:01:51.232Z,9.83
2022-12-25T22:04:22.393Z,9.82
2022-12-25T22:07:09.103Z,9.85
2022-12-25T22:09:36.735Z,9.83
2022-12-25T22:12:23.785Z,9.78
2022-12-25T22:14:56.904Z,9.76
2022-12-25T22:17:46.710Z,9.74
2022-12-25T22:20:25.695Z,9.75
2022-12-25T22:22:54.284Z,9.74
2022-12-25T22:25:22.518Z,9.74
2022-12-25T22:27:49.974Z,9.74
2022-12-25T22:30:26.177Z,9.73
2022-12-25T22:32:53.809Z,9.72
2022-12-25T22:35:21.545Z,9.69
2022-12-25T22:37:49.662Z,9.66
2022-12-25T22:40:19.835Z,9.65
2022-12-25T22:42:47.468Z,9.63
2022-12-25T22:45:15.253Z,9.61
2022-12-25T22:47:42.517Z,9.61
2022-12-25T22:50:15.295Z,9.56
2022-12-25T22:52:45.707Z,9.55
2022-12-25T22:55:18.698Z,9.53
2022-12-25T22:57:45.691Z,9.51
2022-12-25T23:00:14.126Z,9.51
2022-12-25T23:02:41.215Z,9.50
2022-12-25T23:05:08.807Z,9.48
2022-12-25T23:07:35.843Z,9.50
2022-12-25T23:10:04.928Z,9.47
2022-12-25T23:12:50.449Z,9.38
2022-12-25T23:15:17.838Z,9.24
2022-12-25T23:18:03.380Z,9.09
2022-12-25T23:20:51.199Z,8.94
2022-12-25T23:23:36.985Z,8.84
2022-12-25T23:26:10.583Z,8.67
2022-12-25T23:28:59.104Z,8.53
2022-12-25T23:31:32.544Z,8.40
2022-12-25T23:34:00.421Z,8.29
2022-12-25T23:36:27.866Z,8.20
2022-12-25T23:38:54.834Z,8.06
2022-12-25T23:41:22.567Z,7.99
2022-12-25T23:43:49.754Z,7.88
2022-12-25T23:46:17.076Z,7.86
2022-12-25T23:48:44.064Z,7.82
2022-12-25T23:51:11.279Z,7.77
2022-12-25T23:53:38.313Z,7.75
2022-12-25T23:56:05.919Z,7.72
2022-12-25T23:58:33.822Z,7.72
